Main page
METAR-TAF:

METAR-TAF

Airports :

Nouméa / La Tontouta, New Caledonia

La Tontouta International Airport

latitude: 22-01S, longitude: 166-13E, elevation: 16 m

Current weather observation

The report was made 19 minutes ago, at 02:00 UTC
Wind 15 kt from the Southeast
Temperature 25°C
Humidity 61%
Pressure 1015 hPa
Visibility 10 km or more
Few clouds at a height of 4100 ft

METAR: NWWW 270200Z AUTO 13015KT 9999 FEW041 25/17 Q1015 NOSIG

Time: 13:19 (02:19 UTC)

Forecast

The report was made 3 hours and 19 minutes ago, at 23:00 UTC
Forecast valid from 27 at 00 UTC to 27 at 24 UTC
Wind 10 kt from the Southeast
Visibility 10 km or more
Few clouds at a height of 3000 ft

TAF: NWWW 262300Z 2700/2724 13010KT 9999 FEW030

Weather observations and forecasts of more than 4000 airports (METAR and TAF reports).

The available stations are represented by yellow and red dots on the map.

Hover mouse over dot to see the name of the station.

Then click to see weather observations and forecasts.

To change the map : click on the green buttons with a black cross to zoom in, on the green button with a dash to zoom out, or on the green arrows for adjacent maps.


METAR-TAF: